Time;durP1;ratioP1;P1;durP2;ratioP2;P2;SDS_P1;SDS_P2;PMS_P1;PMS_P2;Temp;Humidity;BMP_temperature;BMP_pressure;BME280_temperature;BME280_humidity;BME280_pressure;Samples;Min_cycle;Max_cycle;Signal;HPM_P1;HPM_P2
2022/12/16 00:00:04;;;;;;;9.20;6.20;;;;;;;;;;4973917;28;20065;-74
2022/12/16 00:02:32;;;;;;;9.52;6.55;;;;;;;;;;4974029;28;20507;-75
2022/12/16 00:04:59;;;;;;;8.52;5.93;;;;;;;;;;4974275;28;20133;-74
2022/12/16 00:07:26;;;;;;;9.93;6.30;;;;;;;;;;4973857;28;20138;-75
2022/12/16 00:09:53;;;;;;;34.35;29.50;;;;;;;;;;4975563;28;20050;-74
2022/12/16 00:12:20;;;;;;;10.77;6.90;;;;;;;;;;4988645;28;20142;-74
2022/12/16 00:14:47;;;;;;;9.90;6.53;;;;;;;;;;4974160;28;20559;-74
2022/12/16 00:17:15;;;;;;;8.55;6.38;;;;;;;;;;4974783;28;20138;-75
2022/12/16 00:19:42;;;;;;;9.63;6.45;;;;;;;;;;4973902;28;20133;-75
2022/12/16 00:22:09;;;;;;;10.18;6.72;;;;;;;;;;4986659;28;20440;-74
2022/12/16 00:24:37;;;;;;;9.82;6.32;;;;;;;;;;4973989;28;20467;-75
2022/12/16 00:27:04;;;;;;;9.57;6.50;;;;;;;;;;4973889;28;20058;-75
2022/12/16 00:29:31;;;;;;;9.77;7.22;;;;;;;;;;4973658;28;20061;-75
2022/12/16 00:31:58;;;;;;;9.80;6.65;;;;;;;;;;4988841;28;20133;-75
2022/12/16 00:34:26;;;;;;;9.50;6.50;;;;;;;;;;4992879;28;20242;-75
2022/12/16 00:36:53;;;;;;;9.70;6.90;;;;;;;;;;4993815;28;20053;-75
2022/12/16 00:39:20;;;;;;;8.82;6.35;;;;;;;;;;4992999;28;20117;-75
2022/12/16 00:41:47;;;;;;;9.63;7.03;;;;;;;;;;4993349;28;20519;-75
2022/12/16 00:44:15;;;;;;;10.43;7.00;;;;;;;;;;4992819;28;20482;-75
2022/12/16 00:46:42;;;;;;;10.15;6.82;;;;;;;;;;4993822;28;20132;-75
2022/12/16 00:49:09;;;;;;;9.23;6.18;;;;;;;;;;4992873;28;20144;-75
2022/12/16 00:51:37;;;;;;;8.50;6.30;;;;;;;;;;4991937;28;20514;-74
2022/12/16 00:54:05;;;;;;;40.63;33.55;;;;;;;;;;4993913;28;20418;-74
2022/12/16 00:56:32;;;;;;;12.25;7.07;;;;;;;;;;4992663;28;20129;-75
2022/12/16 00:58:59;;;;;;;8.65;5.93;;;;;;;;;;4992825;28;20133;-75
2022/12/16 01:01:26;;;;;;;8.70;6.05;;;;;;;;;;4988886;28;20138;-75
2022/12/16 01:03:53;;;;;;;8.25;6.65;;;;;;;;;;4972649;28;20065;-75
2022/12/16 01:06:20;;;;;;;9.07;6.70;;;;;;;;;;4973160;28;20134;-75
2022/12/16 01:08:48;;;;;;;9.70;6.63;;;;;;;;;;4973032;28;20551;-75
2022/12/16 01:11:15;;;;;;;11.27;7.22;;;;;;;;;;4980083;28;20077;-75
2022/12/16 01:13:42;;;;;;;9.15;6.50;;;;;;;;;;4993075;28;20507;-73
2022/12/16 01:16:10;;;;;;;9.18;6.65;;;;;;;;;;4992110;28;20483;-75
2022/12/16 01:18:37;;;;;;;10.73;6.78;;;;;;;;;;4992391;28;20502;-74
2022/12/16 01:21:04;;;;;;;9.15;6.40;;;;;;;;;;4988406;28;20061;-75
2022/12/16 01:23:34;;;;;;;9.65;7.07;;;;;;;;;;4972604;28;20137;-76
2022/12/16 01:26:02;;;;;;;9.65;6.97;;;;;;;;;;4973789;28;20412;-76
2022/12/16 01:28:30;;;;;;;8.50;6.22;;;;;;;;;;4972862;28;20051;-77
2022/12/16 01:31:00;;;;;;;10.50;6.03;;;;;;;;;;4976827;28;20062;-77
2022/12/16 01:33:27;;;;;;;763.17;543.42;;;;;;;;;;4983932;28;20086;-76
2022/12/16 01:35:58;;;;;;;124.00;111.85;;;;;;;;;;4972978;28;20515;-76
2022/12/16 01:38:25;;;;;;;10.30;6.65;;;;;;;;;;4993378;28;20076;-77
2022/12/16 01:40:53;;;;;;;8.93;6.47;;;;;;;;;;4988281;28;20170;-77
2022/12/16 01:43:23;;;;;;;17.27;13.77;;;;;;;;;;4972158;28;20063;-76
2022/12/16 01:45:50;;;;;;;10.00;6.95;;;;;;;;;;4972683;28;20061;-77
2022/12/16 01:48:19;;;;;;;9.55;7.13;;;;;;;;;;4972654;28;20133;-77
2022/12/16 01:50:46;;;;;;;9.73;7.30;;;;;;;;;;4974633;28;20129;-77
2022/12/16 01:53:14;;;;;;;9.40;6.88;;;;;;;;;;4991565;28;20137;-75
2022/12/16 01:55:42;;;;;;;9.93;6.53;;;;;;;;;;4992928;28;20523;-77
2022/12/16 01:58:10;;;;;;;8.10;6.35;;;;;;;;;;4991506;28;20436;-77
2022/12/16 02:00:38;;;;;;;8.65;6.47;;;;;;;;;;4991316;28;20407;-77
2022/12/16 02:03:05;;;;;;;11.18;6.80;;;;;;;;;;4989715;28;20157;-77
2022/12/16 02:05:32;;;;;;;9.13;6.22;;;;;;;;;;4992491;28;20129;-76
2022/12/16 02:08:01;;;;;;;9.05;6.63;;;;;;;;;;4991955;28;20133;-77
2022/12/16 02:10:29;;;;;;;9.05;6.70;;;;;;;;;;4992688;28;20049;-77
2022/12/16 02:12:57;;;;;;;10.32;6.72;;;;;;;;;;4990837;28;20149;-77
2022/12/16 02:15:25;;;;;;;8.93;6.47;;;;;;;;;;4987298;28;20062;-76
2022/12/16 02:17:56;;;;;;;10.20;6.85;;;;;;;;;;4982155;28;20125;-77
2022/12/16 02:20:38;;;;;;;131.65;114.65;;;;;;;;;;4991496;28;20484;-77
2022/12/16 02:23:17;;;;;;;10.52;6.68;;;;;;;;;;4991574;28;20252;-77
2022/12/16 02:25:51;;;;;;;9.10;6.22;;;;;;;;;;4991646;28;20097;-75
2022/12/16 02:28:21;;;;;;;8.75;6.55;;;;;;;;;;4991626;28;20050;-76
2022/12/16 02:30:51;;;;;;;10.95;7.07;;;;;;;;;;4991558;28;20086;-77
2022/12/16 02:33:26;;;;;;;10.35;6.90;;;;;;;;;;4992117;28;20145;-77
2022/12/16 02:35:54;;;;;;;9.07;6.30;;;;;;;;;;4987962;28;20061;-77
2022/12/16 02:38:22;;;;;;;10.30;6.57;;;;;;;;;;4990755;28;20059;-76
2022/12/16 02:40:52;;;;;;;9.55;6.15;;;;;;;;;;4991474;28;20077;-76
2022/12/16 02:43:19;;;;;;;10.57;6.53;;;;;;;;;;4991129;28;20552;-77
2022/12/16 02:45:47;;;;;;;8.77;6.60;;;;;;;;;;4987127;28;20047;-77
2022/12/16 02:48:15;;;;;;;8.90;5.95;;;;;;;;;;4971448;28;20078;-76
2022/12/16 02:50:43;;;;;;;9.73;7.15;;;;;;;;;;4974319;28;20082;-77
2022/12/16 02:53:10;;;;;;;9.93;6.40;;;;;;;;;;4992119;28;20076;-77
2022/12/16 02:55:40;;;;;;;8.77;5.85;;;;;;;;;;4987419;28;20137;-77
2022/12/16 02:58:10;;;;;;;9.80;6.53;;;;;;;;;;4971299;28;20133;-76
2022/12/16 03:00:40;;;;;;;9.05;6.45;;;;;;;;;;4972530;28;20137;-77
2022/12/16 03:03:08;;;;;;;9.40;6.75;;;;;;;;;;4971693;28;20054;-77
2022/12/16 03:05:37;;;;;;;9.20;6.32;;;;;;;;;;4972362;28;20053;-77
2022/12/16 03:08:04;;;;;;;7.90;6.03;;;;;;;;;;4972400;28;20643;-77
2022/12/16 03:10:32;;;;;;;10.32;7.38;;;;;;;;;;4971447;28;20137;-76
2022/12/16 03:13:00;;;;;;;9.48;6.82;;;;;;;;;;4971268;28;20055;-76
2022/12/16 03:15:27;;;;;;;8.30;6.18;;;;;;;;;;4973224;28;20062;-77
2022/12/16 03:17:54;;;;;;;7.88;5.97;;;;;;;;;;4990591;28;20460;-77
2022/12/16 03:20:23;;;;;;;9.15;6.32;;;;;;;;;;4990499;28;20419;-77
2022/12/16 03:22:51;;;;;;;9.77;6.80;;;;;;;;;;4994099;28;20153;-75
2022/12/16 03:25:18;;;;;;;10.40;6.28;;;;;;;;;;4994930;28;20129;-77
2022/12/16 03:27:47;;;;;;;10.13;6.55;;;;;;;;;;4974994;28;20059;-77
2022/12/16 03:30:15;;;;;;;10.15;6.40;;;;;;;;;;4974739;28;20062;-76
2022/12/16 03:32:44;;;;;;;8.90;6.18;;;;;;;;;;4979446;28;20058;-76
2022/12/16 03:35:13;;;;;;;8.45;6.07;;;;;;;;;;4994218;28;20141;-77
2022/12/16 03:37:40;;;;;;;8.68;6.57;;;;;;;;;;4990467;28;20140;-77
2022/12/16 03:40:09;;;;;;;9.60;6.13;;;;;;;;;;4994169;28;20066;-76
2022/12/16 03:42:36;;;;;;;8.90;6.47;;;;;;;;;;4995221;28;20402;-77
2022/12/16 03:45:04;;;;;;;10.30;6.97;;;;;;;;;;4993673;28;20133;-77
2022/12/16 03:47:31;;;;;;;9.82;6.15;;;;;;;;;;4993355;28;20137;-75
2022/12/16 03:49:58;;;;;;;8.93;6.03;;;;;;;;;;4993790;28;20064;-77
2022/12/16 03:52:25;;;;;;;8.65;6.32;;;;;;;;;;4993788;28;20499;-76
2022/12/16 03:54:52;;;;;;;8.25;6.15;;;;;;;;;;4993577;28;20133;-77
2022/12/16 03:57:20;;;;;;;8.63;6.15;;;;;;;;;;4989757;28;20130;-76
2022/12/16 03:59:47;;;;;;;9.32;6.15;;;;;;;;;;4974568;28;20065;-77
2022/12/16 04:02:14;;;;;;;8.25;6.38;;;;;;;;;;4974233;28;20062;-77
2022/12/16 04:04:41;;;;;;;8.40;6.30;;;;;;;;;;4975642;28;20133;-77
2022/12/16 04:07:20;;;;;;;8.38;5.68;;;;;;;;;;4989071;28;20130;-77
2022/12/16 04:09:47;;;;;;;8.80;6.20;;;;;;;;;;4993778;28;20447;-77
2022/12/16 04:25:59;;;;;;;9.65;6.70;;;;;;;;;;4989967;28;20404;-77
2022/12/16 04:28:26;;;;;;;9.23;6.63;;;;;;;;;;4943031;28;20125;-77
2022/12/16 04:30:55;;;;;;;11.43;7.00;;;;;;;;;;4947204;28;64696;-77
